29分钟前
罗盘
风向 的 风向 200° Parkland Airport 08/26
风: 2 千吨, 1 beaufort
0 500 1.500 3.000 5.000 8.000 10.000
BKN 10.000 ft
BKN 12.000 ft
METAR CZVL 291800Z AUTO 20002KT 9SM BKN100 BKN120 M01/M03 A2992 RMK SLP159

METAR定义 | 嵌入

24小时趋势

航班类别VFRLIFR
温度8 °C-5 °C
风速11 千吨0 千吨
能见度14 公里0 米

更多历史数据

下载我们的安卓应用程序

从你的主屏幕上轻松地访问你的航空天气。
只需一次付费,您就可以获得无广告的体验。

您会帮助我们保持Metar-Taf.com正常运行吗?
您的贡献有助于网站的进一步开发并支付费用。

没有更多广告

您是捐款5美元还是更多?然后,我们将永远不会再向您展示广告,这是我们永恒的感谢!
捐赠前先登录

METAR Parkland Airport

Parkland Airport是Edmonton,加拿大中的小机场。 机场有{a,plural,=1{一条跑道} other{#跑道}}: 08/26

Parkland Airport最近未发布观察结果。相反,我们向您显示22 km的报告Edmonton / Villeneuve Airport。 该报告是针对2021年11月29日 11:00, 当地时间进行的。

机场观察

风来自南南西 (200°)方向,速度为2 千吨。

可见度为14 公里。

有碎云在10.000 ft的高度 和 碎云在12.000 ft的高度。 破损或更高的上限为10.000 ft。

温度为-1 °C,阵风为-3 °C。 露点为-3 °C,相对湿度为86%。 海平面上的气压为1013 压力 (QNH)。

评论

  • 海平面压力为1015,9 压力 (SLP159)

白天

今天,太阳从08:25升起,在16:21降落。 这适用于Parkland Airport,世界夏令时可能有所不同。 当地时间与世界标准时间之间的时差为-7 小时。 当前,没有夏令时有效。

公司介绍

在这个机场,你可以找到飞行学校。 本场上唯一已知的公司是Edmonton Flying Club。

体会

到Vliegles.nl去找飞行课程,跳伞和其他飞行体验。 浏览页面,了解Parkland Airport附近所有可用的活动。 你也可以使用搜索功能来寻找你所在地附近的特定飞行课程、跳伞或其他飞行体验。

您是否要在网站上Parkland Airport飞行的天气? 阅读更多   自由!